createdAt,value
2018-05-27T00:00:03.626Z,15.71
2018-05-27T00:01:03.590Z,15.77
2018-05-27T00:02:03.615Z,15.77
2018-05-27T00:03:03.544Z,15.70
2018-05-27T00:04:03.521Z,15.70
2018-05-27T00:05:03.494Z,15.63
2018-05-27T00:06:03.467Z,15.71
2018-05-27T00:07:03.486Z,15.74
2018-05-27T00:08:03.417Z,15.80
2018-05-27T00:09:03.389Z,15.84
2018-05-27T00:10:03.404Z,15.88
2018-05-27T00:11:03.336Z,15.91
2018-05-27T00:12:03.313Z,15.91
2018-05-27T00:13:03.340Z,15.84
2018-05-27T00:14:03.261Z,15.89
2018-05-27T00:15:03.233Z,15.89
2018-05-27T00:16:03.261Z,15.91
2018-05-27T00:17:03.930Z,15.86
2018-05-27T00:18:03.160Z,15.86
2018-05-27T00:19:03.486Z,15.92
2018-05-27T00:20:03.111Z,15.83
2018-05-27T00:21:03.082Z,15.88
2018-05-27T00:22:03.058Z,15.96
2018-05-27T00:23:03.490Z,15.98
2018-05-27T00:24:03.050Z,15.96
2018-05-27T00:25:02.984Z,15.95
2018-05-27T00:26:03.936Z,15.96
2018-05-27T00:27:02.929Z,15.98
2018-05-27T00:28:03.435Z,15.93
2018-05-27T00:29:02.923Z,15.93
2018-05-27T00:30:02.913Z,15.93
2018-05-27T00:31:02.829Z,15.88
2018-05-27T00:32:03.439Z,15.98
2018-05-27T00:33:02.778Z,16.00
2018-05-27T00:34:03.447Z,15.96
2018-05-27T00:35:02.772Z,15.95
2018-05-27T00:36:02.719Z,15.98
2018-05-27T00:37:03.437Z,15.98
2018-05-27T00:38:02.654Z,15.95
2018-05-27T00:39:02.989Z,15.93
2018-05-27T00:40:02.650Z,15.89
2018-05-27T00:41:02.572Z,15.95
2018-05-27T00:42:03.436Z,15.95
2018-05-27T00:43:02.538Z,15.96
2018-05-27T00:44:03.438Z,15.95
2018-05-27T00:45:02.524Z,15.98
2018-05-27T00:46:02.446Z,15.99
2018-05-27T00:47:02.940Z,15.93
2018-05-27T00:48:02.395Z,15.86
2018-05-27T00:49:02.367Z,15.91
2018-05-27T00:50:02.496Z,15.89
2018-05-27T00:51:02.336Z,15.81
2018-05-27T00:52:02.366Z,15.86
2018-05-27T00:53:02.941Z,15.88
2018-05-27T00:54:02.255Z,15.88
2018-05-27T00:55:02.223Z,15.84
2018-05-27T00:56:02.237Z,15.93
2018-05-27T00:57:02.957Z,15.86
2018-05-27T00:58:02.136Z,15.91
2018-05-27T00:59:02.112Z,15.81
2018-05-27T01:00:02.945Z,15.91
2018-05-27T01:01:02.102Z,15.88
2018-05-27T01:02:02.065Z,15.91
2018-05-27T01:03:02.943Z,15.86
2018-05-27T01:04:02.034Z,15.86
2018-05-27T01:05:01.954Z,15.83
2018-05-27T01:06:01.937Z,15.89
2018-05-27T01:07:01.966Z,15.86
2018-05-27T01:08:01.887Z,15.78
2018-05-27T01:09:01.855Z,15.88
2018-05-27T01:10:02.443Z,15.81
2018-05-27T01:11:01.809Z,15.77
2018-05-27T01:12:01.820Z,15.78
2018-05-27T01:13:02.002Z,15.75
2018-05-27T01:14:01.727Z,15.73
2018-05-27T01:15:01.713Z,15.77
2018-05-27T01:16:01.674Z,15.71
2018-05-27T01:17:01.663Z,15.70
2018-05-27T01:18:01.667Z,15.68
2018-05-27T01:19:02.441Z,15.68
2018-05-27T01:20:01.575Z,15.73
2018-05-27T01:21:01.552Z,15.71
2018-05-27T01:22:02.352Z,15.70
2018-05-27T01:23:02.007Z,15.70
2018-05-27T01:24:01.472Z,15.63
2018-05-27T01:25:01.450Z,15.71
2018-05-27T01:26:01.949Z,15.70
2018-05-27T01:27:01.391Z,15.67
2018-05-27T01:28:01.422Z,15.67
2018-05-27T01:29:01.945Z,15.74
2018-05-27T01:30:01.315Z,15.68
2018-05-27T01:31:01.284Z,15.65
2018-05-27T01:32:01.265Z,15.62
2018-05-27T01:33:01.505Z,15.67
2018-05-27T01:34:01.213Z,15.56
2018-05-27T01:35:01.184Z,15.56
2018-05-27T01:36:01.959Z,15.45
2018-05-27T01:37:01.136Z,15.55
2018-05-27T01:38:01.170Z,15.63
2018-05-27T01:39:01.950Z,15.52
2018-05-27T01:40:01.055Z,15.47
2018-05-27T01:41:01.026Z,15.59
2018-05-27T01:42:01.002Z,15.51
2018-05-27T01:43:01.029Z,15.47
2018-05-27T01:44:00.953Z,15.49
2018-05-27T01:45:01.455Z,15.47
2018-05-27T01:46:00.904Z,15.49
2018-05-27T01:47:00.872Z,15.47
2018-05-27T01:48:00.895Z,15.49
2018-05-27T01:49:01.449Z,15.44
2018-05-27T01:50:00.799Z,15.49
2018-05-27T01:51:00.773Z,15.41
2018-05-27T01:52:00.744Z,15.44
2018-05-27T01:53:01.001Z,15.43
2018-05-27T01:54:00.737Z,15.45
2018-05-27T01:55:00.679Z,15.45
2018-05-27T01:56:01.451Z,15.44
2018-05-27T01:57:00.616Z,15.40
2018-05-27T01:58:00.593Z,15.27
2018-05-27T01:59:01.018Z,15.33
2018-05-27T02:00:00.537Z,15.33
2018-05-27T02:01:00.568Z,15.27
2018-05-27T02:02:01.461Z,15.35
2018-05-27T02:03:00.509Z,15.30
2018-05-27T02:04:00.521Z,15.26
2018-05-27T02:05:00.412Z,15.35
2018-05-27T02:06:00.382Z,15.35
2018-05-27T02:07:00.360Z,15.30
2018-05-27T02:08:00.951Z,15.31
2018-05-27T02:09:00.369Z,15.26
2018-05-27T02:10:00.277Z,15.35
2018-05-27T02:11:00.959Z,15.31
2018-05-27T02:12:00.231Z,15.20
2018-05-27T02:13:00.201Z,15.18
2018-05-27T02:14:00.216Z,15.22
2018-05-27T02:15:00.155Z,15.19
2018-05-27T02:16:00.954Z,15.18
2018-05-27T02:17:00.118Z,15.18
2018-05-27T02:18:00.077Z,15.19
2018-05-27T02:19:00.507Z,15.16
2018-05-27T02:20:00.021Z,15.16
2018-05-27T02:21:00.959Z,15.20
2018-05-27T02:21:59.969Z,15.18
2018-05-27T02:22:59.966Z,15.19
2018-05-27T02:24:00.026Z,15.19
2018-05-27T02:24:59.890Z,15.16
2018-05-27T02:25:59.864Z,15.16
2018-05-27T02:26:59.850Z,15.12
2018-05-27T02:28:00.460Z,15.02
2018-05-27T02:28:59.829Z,15.13
2018-05-27T02:29:59.764Z,15.02
2018-05-27T02:30:59.785Z,15.00
2018-05-27T02:31:59.712Z,15.13
2018-05-27T02:32:59.683Z,15.16
2018-05-27T02:33:59.655Z,15.15
2018-05-27T02:34:59.634Z,15.10
2018-05-27T02:35:59.653Z,15.08
2018-05-27T02:36:59.585Z,15.10
2018-05-27T02:38:00.017Z,15.08
2018-05-27T02:38:59.548Z,15.16
2018-05-27T02:39:59.554Z,15.12
2018-05-27T02:41:00.018Z,15.10
2018-05-27T02:41:59.504Z,15.02
2018-05-27T02:42:59.428Z,15.07
2018-05-27T02:43:59.453Z,15.05
2018-05-27T02:44:59.376Z,15.12
2018-05-27T02:45:59.511Z,15.13
2018-05-27T02:46:59.329Z,15.12
2018-05-27T02:47:59.525Z,15.02
2018-05-27T02:48:59.272Z,15.08
2018-05-27T02:49:59.241Z,15.16
2018-05-27T02:50:59.219Z,15.01
2018-05-27T02:51:59.960Z,15.00
2018-05-27T02:52:59.207Z,15.01
2018-05-27T02:53:59.135Z,15.02
2018-05-27T02:54:59.114Z,15.05
2018-05-27T02:55:59.133Z,15.01
2018-05-27T02:56:59.060Z,14.98
2018-05-27T02:57:59.077Z,15.07
2018-05-27T02:58:59.010Z,14.98
2018-05-27T02:59:59.962Z,15.00
2018-05-27T03:00:58.953Z,15.04
2018-05-27T03:01:58.976Z,15.01
2018-05-27T03:02:59.024Z,15.01
2018-05-27T03:03:58.880Z,15.07
2018-05-27T03:04:58.855Z,15.00
2018-05-27T03:05:58.824Z,15.04
2018-05-27T03:06:59.462Z,15.10
2018-05-27T03:07:58.821Z,15.04
2018-05-27T03:08:58.746Z,15.07
2018-05-27T03:09:59.465Z,15.01
2018-05-27T03:10:58.709Z,15.05
2018-05-27T03:11:58.712Z,15.05
2018-05-27T03:12:59.473Z,15.07
2018-05-27T03:13:58.673Z,15.05
2018-05-27T03:14:58.591Z,14.98
2018-05-27T03:15:58.566Z,15.01
2018-05-27T03:16:58.534Z,15.02
2018-05-27T03:17:58.524Z,15.02
2018-05-27T03:18:58.534Z,15.01
2018-05-27T03:19:58.456Z,15.04
2018-05-27T03:20:58.437Z,15.00
2018-05-27T03:21:58.406Z,15.04
2018-05-27T03:22:58.430Z,15.01
2018-05-27T03:23:58.363Z,15.04
2018-05-27T03:24:58.328Z,15.05
2018-05-27T03:25:58.302Z,15.05
2018-05-27T03:26:58.278Z,15.00
2018-05-27T03:27:58.303Z,15.04
2018-05-27T03:28:58.227Z,15.08
2018-05-27T03:29:58.202Z,15.04
2018-05-27T03:30:58.172Z,15.07
2018-05-27T03:31:58.145Z,14.98
2018-05-27T03:32:58.165Z,15.02
2018-05-27T03:33:58.093Z,15.10
2018-05-27T03:34:58.114Z,15.02
2018-05-27T03:35:58.040Z,14.98
2018-05-27T03:36:58.015Z,15.08
2018-05-27T03:37:58.038Z,15.13
2018-05-27T03:38:57.967Z,15.05
2018-05-27T03:39:57.938Z,15.16
2018-05-27T03:40:57.919Z,15.20
2018-05-27T03:41:57.934Z,15.16
2018-05-27T03:42:57.860Z,15.16
2018-05-27T03:43:57.877Z,15.18
2018-05-27T03:44:57.807Z,15.26
2018-05-27T03:45:57.784Z,15.26
2018-05-27T03:46:57.756Z,15.25
2018-05-27T03:47:57.728Z,15.31
2018-05-27T03:48:57.753Z,15.38
2018-05-27T03:49:57.679Z,15.30
2018-05-27T03:50:57.654Z,15.34
2018-05-27T03:51:57.677Z,15.35
2018-05-27T03:52:57.597Z,15.37
2018-05-27T03:53:57.580Z,15.45
2018-05-27T03:54:57.553Z,15.47
2018-05-27T03:55:57.568Z,15.52
2018-05-27T03:56:57.554Z,15.45
2018-05-27T03:57:57.495Z,15.45
2018-05-27T03:58:57.445Z,15.47
2018-05-27T03:59:57.422Z,15.52
2018-05-27T04:00:57.396Z,15.56
2018-05-27T04:01:57.415Z,15.59
2018-05-27T04:02:57.346Z,15.65
2018-05-27T04:03:57.316Z,15.70
2018-05-27T04:04:57.298Z,15.67
2018-05-27T04:05:57.313Z,15.59
2018-05-27T04:06:57.240Z,15.63
2018-05-27T04:07:57.268Z,15.62
2018-05-27T04:08:57.191Z,15.65
2018-05-27T04:09:57.169Z,15.62
2018-05-27T04:10:57.146Z,15.68
2018-05-27T04:11:57.977Z,15.68
2018-05-27T04:12:57.131Z,15.70
2018-05-27T04:13:57.063Z,15.78
2018-05-27T04:14:57.035Z,15.78
2018-05-27T04:15:57.989Z,15.92
2018-05-27T04:16:57.006Z,15.89
2018-05-27T04:17:57.000Z,15.89
2018-05-27T04:18:56.981Z,15.83
2018-05-27T04:19:56.909Z,15.89
2018-05-27T04:20:56.881Z,15.86
2018-05-27T04:21:56.862Z,15.93
2018-05-27T04:22:56.887Z,15.98
2018-05-27T04:23:56.818Z,16.02
2018-05-27T04:24:56.783Z,16.16
2018-05-27T04:25:56.754Z,16.27
2018-05-27T04:26:56.733Z,16.52
2018-05-27T04:27:56.753Z,16.69
2018-05-27T04:28:56.746Z,16.62
2018-05-27T04:29:56.658Z,16.59
2018-05-27T04:30:56.631Z,16.51
2018-05-27T04:31:56.609Z,16.47
2018-05-27T04:32:56.580Z,16.45
2018-05-27T04:33:56.605Z,16.44
2018-05-27T04:34:56.537Z,16.37
2018-05-27T04:35:56.519Z,16.40
2018-05-27T04:36:56.479Z,16.36
2018-05-27T04:37:56.459Z,16.32
2018-05-27T04:38:56.469Z,16.44
2018-05-27T04:39:56.456Z,16.51
2018-05-27T04:40:56.413Z,16.51
2018-05-27T04:41:56.362Z,16.52
2018-05-27T04:42:56.341Z,16.52
2018-05-27T04:43:56.315Z,16.51
2018-05-27T04:44:56.329Z,16.54
2018-05-27T04:45:57.002Z,16.55
2018-05-27T04:46:56.241Z,16.49
2018-05-27T04:47:56.220Z,16.59
2018-05-27T04:48:56.188Z,16.63
2018-05-27T04:49:56.162Z,16.67
2018-05-27T04:50:56.176Z,16.67
2018-05-27T04:51:56.127Z,16.69
2018-05-27T04:52:56.085Z,16.85
2018-05-27T04:53:56.061Z,16.63
2018-05-27T04:54:56.084Z,16.74
2018-05-27T04:55:56.008Z,16.76
2018-05-27T04:56:55.984Z,16.81
2018-05-27T04:57:55.963Z,16.72
2018-05-27T04:58:55.984Z,16.81
2018-05-27T04:59:55.963Z,16.76
2018-05-27T05:00:55.916Z,16.81
2018-05-27T05:01:55.873Z,16.80
2018-05-27T05:02:55.844Z,16.80
2018-05-27T05:03:55.857Z,16.85
2018-05-27T05:04:55.786Z,16.87
2018-05-27T05:05:55.769Z,16.85
2018-05-27T05:06:55.782Z,16.85
2018-05-27T05:07:55.717Z,16.84
2018-05-27T05:08:55.690Z,16.87
2018-05-27T05:09:55.708Z,16.87
2018-05-27T05:10:55.641Z,16.87
2018-05-27T05:11:55.619Z,16.92
2018-05-27T05:12:55.590Z,16.94
2018-05-27T05:13:55.613Z,16.94
2018-05-27T05:14:55.636Z,17.06
2018-05-27T05:15:55.527Z,17.07
2018-05-27T05:16:55.491Z,17.18
2018-05-27T05:17:55.473Z,17.12
2018-05-27T05:18:55.489Z,17.31
2018-05-27T05:19:55.475Z,17.39
2018-05-27T05:20:55.398Z,17.39
2018-05-27T05:21:55.423Z,17.36
2018-05-27T05:22:55.348Z,17.40
2018-05-27T05:23:55.353Z,17.40
2018-05-27T05:24:55.553Z,17.49
2018-05-27T05:25:55.275Z,17.47
2018-05-27T05:26:55.249Z,17.63
2018-05-27T05:27:55.228Z,17.68
2018-05-27T05:28:55.209Z,17.69
2018-05-27T05:29:55.237Z,17.66
2018-05-27T05:30:55.153Z,17.79
2018-05-27T05:31:55.137Z,17.76
2018-05-27T05:32:55.111Z,17.86
2018-05-27T05:33:55.086Z,17.80
2018-05-27T05:34:55.105Z,17.81
2018-05-27T05:35:55.037Z,17.86
2018-05-27T05:36:55.069Z,17.84
2018-05-27T05:37:54.987Z,17.90
2018-05-27T05:38:54.966Z,17.98
2018-05-27T05:39:54.942Z,18.03
2018-05-27T05:40:54.916Z,18.06
2018-05-27T05:41:54.941Z,18.02
2018-05-27T05:42:54.871Z,18.14
2018-05-27T05:43:54.849Z,18.14
2018-05-27T05:44:54.823Z,18.24
2018-05-27T05:45:54.801Z,18.21
2018-05-27T05:46:54.827Z,18.31
2018-05-27T05:47:54.753Z,18.31
2018-05-27T05:48:54.732Z,18.31
2018-05-27T05:49:54.707Z,18.38
2018-05-27T05:50:54.689Z,18.51
2018-05-27T05:51:54.714Z,18.53
2018-05-27T05:52:54.636Z,18.61
2018-05-27T05:53:54.626Z,18.65
2018-05-27T05:54:54.589Z,18.63
2018-05-27T05:55:54.569Z,18.72
2018-05-27T05:56:54.583Z,18.71
2018-05-27T05:57:54.557Z,18.72
2018-05-27T05:58:54.514Z,18.78
2018-05-27T05:59:54.475Z,18.78
2018-05-27T06:00:54.449Z,18.86
2018-05-27T06:01:54.427Z,18.79
2018-05-27T06:02:54.449Z,18.87
2018-05-27T06:03:54.387Z,18.91
2018-05-27T06:04:54.356Z,18.86
2018-05-27T06:05:54.339Z,18.93
2018-05-27T06:06:54.313Z,19.06
2018-05-27T06:07:54.334Z,19.02
2018-05-27T06:08:54.314Z,19.12
2018-05-27T06:09:54.245Z,19.07
2018-05-27T06:10:54.220Z,19.12
2018-05-27T06:11:54.197Z,19.24
2018-05-27T06:12:54.178Z,19.28
2018-05-27T06:13:54.204Z,19.34
2018-05-27T06:14:54.128Z,19.23
2018-05-27T06:15:54.107Z,19.38
2018-05-27T06:16:54.086Z,19.43
2018-05-27T06:17:54.110Z,19.52
2018-05-27T06:18:54.079Z,19.49
2018-05-27T06:19:54.068Z,19.55
2018-05-27T06:20:53.991Z,19.50
2018-05-27T06:21:53.973Z,19.55
2018-05-27T06:22:53.943Z,19.61
2018-05-27T06:23:53.928Z,19.55
2018-05-27T06:24:53.947Z,19.61
2018-05-27T06:25:53.879Z,19.75
2018-05-27T06:26:53.860Z,19.72
2018-05-27T06:27:53.854Z,19.71
2018-05-27T06:28:54.467Z,19.79
2018-05-27T06:29:53.836Z,19.80
2018-05-27T06:30:53.771Z,19.86
2018-05-27T06:31:53.744Z,19.83
2018-05-27T06:32:53.721Z,19.79
2018-05-27T06:33:53.750Z,19.89
2018-05-27T06:34:53.677Z,19.90
2018-05-27T06:35:53.708Z,19.87
2018-05-27T06:36:53.635Z,19.95
2018-05-27T06:37:53.627Z,19.95
2018-05-27T06:38:53.586Z,19.92
2018-05-27T06:39:53.564Z,20.01
2018-05-27T06:40:53.600Z,19.98
2018-05-27T06:41:53.551Z,19.97
2018-05-27T06:42:53.517Z,20.02
2018-05-27T06:43:53.476Z,20.04
2018-05-27T06:44:53.456Z,20.15
2018-05-27T06:45:53.481Z,20.22
2018-05-27T06:46:53.463Z,20.19
2018-05-27T06:47:53.392Z,20.16
2018-05-27T06:48:53.367Z,20.25
2018-05-27T06:49:53.356Z,20.37
2018-05-27T06:50:53.369Z,20.40
2018-05-27T06:51:53.299Z,20.48
2018-05-27T06:52:53.284Z,20.42
2018-05-27T06:53:53.253Z,20.48
2018-05-27T06:54:53.232Z,20.42
2018-05-27T06:55:53.260Z,20.49
2018-05-27T06:56:53.193Z,20.54
2018-05-27T06:57:53.215Z,20.49
2018-05-27T06:58:53.148Z,20.49
2018-05-27T06:59:53.128Z,20.53
2018-05-27T07:00:53.108Z,20.48
2018-05-27T07:01:53.082Z,20.56
2018-05-27T07:02:53.105Z,20.61
2018-05-27T07:03:53.038Z,20.64
2018-05-27T07:04:53.068Z,20.74
2018-05-27T07:05:52.996Z,20.76
2018-05-27T07:06:52.974Z,20.86
2018-05-27T07:07:53.005Z,20.82
2018-05-27T07:08:52.927Z,20.93
2018-05-27T07:09:52.917Z,20.97
2018-05-27T07:10:52.884Z,20.96
2018-05-27T07:11:52.874Z,21.04
2018-05-27T07:12:52.887Z,21.13
2018-05-27T07:13:52.848Z,21.19
2018-05-27T07:14:52.851Z,21.15
2018-05-27T07:15:52.823Z,21.18
2018-05-27T07:16:52.764Z,21.21
2018-05-27T07:17:52.735Z,21.19
2018-05-27T07:18:52.712Z,21.19
2018-05-27T07:19:52.691Z,21.19
2018-05-27T07:20:52.731Z,21.19
2018-05-27T07:21:52.647Z,21.28
2018-05-27T07:22:55.518Z,21.37
2018-05-27T07:23:52.612Z,21.43
2018-05-27T07:24:52.593Z,21.48
2018-05-27T07:25:52.616Z,21.56
2018-05-27T07:26:52.547Z,21.55
2018-05-27T07:27:52.525Z,21.71
2018-05-27T07:28:52.509Z,21.66
2018-05-27T07:29:52.480Z,21.67
2018-05-27T07:30:52.513Z,21.64
2018-05-27T07:31:52.441Z,21.67
2018-05-27T07:32:52.928Z,21.76
2018-05-27T07:33:52.412Z,21.71
2018-05-27T07:34:52.372Z,21.67
2018-05-27T07:35:52.400Z,21.68
2018-05-27T07:36:52.332Z,21.78
2018-05-27T07:37:52.311Z,21.74
2018-05-27T07:38:52.290Z,21.94
2018-05-27T07:39:52.271Z,21.90
2018-05-27T07:40:52.302Z,21.92
2018-05-27T07:41:52.229Z,21.97
2018-05-27T07:42:52.212Z,21.90
2018-05-27T07:43:52.189Z,21.93
2018-05-27T07:44:52.170Z,21.96
2018-05-27T07:45:52.191Z,22.02
2018-05-27T07:46:52.123Z,22.12
2018-05-27T07:47:52.132Z,22.07
2018-05-27T07:48:52.083Z,22.11
2018-05-27T07:49:52.060Z,22.11
2018-05-27T07:50:52.078Z,22.12
2018-05-27T07:51:52.033Z,22.22
2018-05-27T07:52:52.085Z,22.26
2018-05-27T07:53:51.976Z,22.22
2018-05-27T07:54:51.966Z,22.24
2018-05-27T07:55:51.939Z,22.26
2018-05-27T07:56:51.919Z,22.22
2018-05-27T07:57:51.949Z,22.24
2018-05-27T07:58:51.873Z,22.36
2018-05-27T07:59:51.865Z,22.30
2018-05-27T08:00:51.880Z,22.26
2018-05-27T08:01:51.815Z,22.31
2018-05-27T08:02:51.848Z,22.44
2018-05-27T08:03:51.776Z,22.52
2018-05-27T08:04:51.752Z,22.46
2018-05-27T08:05:51.736Z,22.51
2018-05-27T08:06:51.710Z,22.46
2018-05-27T08:07:51.755Z,22.48
2018-05-27T08:08:51.670Z,22.48
2018-05-27T08:09:51.645Z,22.49
2018-05-27T08:10:51.633Z,22.45
2018-05-27T08:11:51.715Z,22.55
2018-05-27T08:12:51.687Z,22.67
2018-05-27T08:13:51.573Z,22.69
2018-05-27T08:14:52.534Z,22.69
2018-05-27T08:15:51.526Z,22.67
2018-05-27T08:16:51.508Z,22.69
2018-05-27T08:17:51.547Z,22.76
2018-05-27T08:18:51.470Z,22.79
2018-05-27T08:19:51.522Z,22.82
2018-05-27T08:20:51.428Z,22.96
2018-05-27T08:21:51.417Z,22.97
2018-05-27T08:22:51.455Z,22.92
2018-05-27T08:23:51.361Z,22.99
2018-05-27T08:24:51.342Z,23.03
2018-05-27T08:25:51.319Z,22.99
2018-05-27T08:26:51.298Z,23.07
2018-05-27T08:27:51.334Z,23.09
2018-05-27T08:28:51.305Z,23.18
2018-05-27T08:29:51.237Z,23.22
2018-05-27T08:30:51.223Z,23.26
2018-05-27T08:31:51.229Z,23.19
2018-05-27T08:32:52.037Z,23.18
2018-05-27T08:33:51.215Z,23.24
2018-05-27T08:34:51.186Z,23.21
2018-05-27T08:35:51.123Z,23.28
2018-05-27T08:36:51.097Z,23.38
2018-05-27T08:37:51.089Z,23.34
2018-05-27T08:38:51.115Z,23.41
2018-05-27T08:39:51.050Z,23.55
2018-05-27T08:40:51.017Z,23.62
2018-05-27T08:41:51.003Z,23.62
2018-05-27T08:42:50.984Z,23.66
2018-05-27T08:43:51.040Z,23.62
2018-05-27T08:44:50.937Z,23.56
2018-05-27T08:45:50.920Z,23.63
2018-05-27T08:46:50.902Z,23.67
2018-05-27T08:47:50.879Z,23.81
2018-05-27T08:48:50.949Z,23.74
2018-05-27T08:49:50.844Z,23.77
2018-05-27T08:50:50.823Z,23.71
2018-05-27T08:51:50.799Z,23.84
2018-05-27T08:52:50.786Z,23.78
2018-05-27T08:53:50.811Z,23.78
2018-05-27T08:54:50.810Z,23.84
2018-05-27T08:55:50.850Z,23.96
2018-05-27T08:56:50.753Z,23.93
2018-05-27T08:57:50.683Z,23.96
2018-05-27T08:58:50.671Z,24.04
2018-05-27T08:59:50.648Z,23.94
2018-05-27T09:00:50.626Z,24.00
2018-05-27T09:01:50.645Z,24.03
2018-05-27T09:02:50.607Z,24.24
2018-05-27T09:03:50.566Z,24.15
2018-05-27T09:04:50.553Z,24.21
2018-05-27T09:05:50.577Z,24.30
2018-05-27T09:06:50.570Z,24.32
2018-05-27T09:07:50.496Z,24.40
2018-05-27T09:08:50.479Z,24.37
2018-05-27T09:09:50.497Z,24.37
2018-05-27T09:10:50.432Z,24.33
2018-05-27T09:11:50.416Z,24.37
2018-05-27T09:12:51.058Z,24.39
2018-05-27T09:13:50.374Z,24.40
2018-05-27T09:14:50.412Z,24.34
2018-05-27T09:15:50.382Z,24.30
2018-05-27T09:16:50.368Z,24.37
2018-05-27T09:17:50.296Z,24.36
2018-05-27T09:18:50.338Z,24.45
2018-05-27T09:19:50.274Z,24.54
2018-05-27T09:20:50.249Z,24.66
2018-05-27T09:21:50.266Z,24.61
2018-05-27T09:22:51.062Z,24.61
2018-05-27T09:23:50.181Z,24.67
2018-05-27T09:24:50.245Z,24.70
2018-05-27T09:25:50.193Z,24.77
2018-05-27T09:26:50.126Z,24.74
2018-05-27T09:27:50.105Z,24.82
2018-05-27T09:28:50.141Z,24.86
2018-05-27T09:29:50.078Z,24.87
2018-05-27T09:30:50.059Z,24.89
2018-05-27T09:31:50.076Z,24.83
2018-05-27T09:32:50.015Z,24.97
2018-05-27T09:33:50.037Z,25.04
2018-05-27T09:34:50.049Z,25.02
2018-05-27T09:35:49.974Z,25.08
2018-05-27T09:36:49.952Z,25.14
2018-05-27T09:37:49.964Z,25.11
2018-05-27T09:38:49.961Z,25.01
2018-05-27T09:39:49.882Z,25.00
2018-05-27T09:40:49.870Z,24.93
2018-05-27T09:41:49.839Z,25.01
2018-05-27T09:42:49.835Z,25.08
2018-05-27T09:43:49.853Z,25.04
2018-05-27T09:44:49.792Z,25.11
2018-05-27T09:45:49.765Z,25.20
2018-05-27T09:46:49.787Z,25.22
2018-05-27T09:47:49.730Z,25.32
2018-05-27T09:48:49.720Z,25.41
2018-05-27T09:49:49.694Z,25.49
2018-05-27T09:50:49.676Z,25.45
2018-05-27T09:51:49.705Z,25.49
2018-05-27T09:52:49.645Z,25.54
2018-05-27T09:53:49.624Z,25.57
2018-05-27T09:54:49.615Z,25.60
2018-05-27T09:55:49.632Z,25.67
2018-05-27T09:56:49.572Z,25.67
2018-05-27T09:57:49.605Z,25.66
2018-05-27T09:58:49.527Z,25.63
2018-05-27T09:59:49.511Z,25.74
2018-05-27T10:00:49.539Z,25.74
2018-05-27T10:01:49.496Z,25.82
2018-05-27T10:02:49.456Z,25.96
2018-05-27T10:03:49.437Z,25.89
2018-05-27T10:04:49.421Z,25.85
2018-05-27T10:05:49.447Z,25.89
2018-05-27T10:06:49.400Z,25.82
2018-05-27T10:07:49.381Z,25.79
2018-05-27T10:08:49.349Z,25.82
2018-05-27T10:09:49.325Z,25.88
2018-05-27T10:10:49.373Z,25.89
2018-05-27T10:11:49.316Z,25.93
2018-05-27T10:12:49.332Z,25.96
2018-05-27T10:13:49.258Z,26.04
2018-05-27T10:14:49.245Z,26.03
2018-05-27T10:15:49.268Z,26.12
2018-05-27T10:16:49.205Z,26.15
2018-05-27T10:17:49.191Z,26.24
2018-05-27T10:18:49.212Z,26.24
2018-05-27T10:19:49.158Z,26.16
2018-05-27T10:20:49.135Z,26.12
2018-05-27T10:21:49.175Z,25.99
2018-05-27T10:22:49.097Z,25.97
2018-05-27T10:23:49.078Z,25.93
2018-05-27T10:24:49.065Z,25.91
2018-05-27T10:25:49.089Z,25.89
2018-05-27T10:26:49.087Z,25.94
2018-05-27T10:27:49.057Z,26.00
2018-05-27T10:28:49.007Z,26.09
2018-05-27T10:29:48.972Z,26.19
2018-05-27T10:30:48.958Z,26.19
2018-05-27T10:31:48.935Z,26.15
2018-05-27T10:32:49.013Z,26.34
2018-05-27T10:33:48.902Z,26.41
2018-05-27T10:34:48.897Z,26.42
2018-05-27T10:35:48.875Z,26.52
2018-05-27T10:36:48.848Z,26.53
2018-05-27T10:37:48.871Z,26.63
2018-05-27T10:38:48.871Z,26.67
2018-05-27T10:39:48.802Z,26.71
2018-05-27T10:40:48.779Z,26.78
2018-05-27T10:41:48.764Z,26.75
2018-05-27T10:42:48.784Z,26.53
2018-05-27T10:43:48.736Z,26.53
2018-05-27T10:44:48.756Z,26.53
2018-05-27T10:45:48.696Z,26.67
2018-05-27T10:46:48.675Z,26.54
2018-05-27T10:47:48.661Z,26.54
2018-05-27T10:48:48.642Z,26.59
2018-05-27T10:49:48.673Z,26.78
2018-05-27T10:50:48.604Z,26.71
2018-05-27T10:51:48.589Z,26.79
2018-05-27T10:52:48.567Z,26.67
2018-05-27T10:53:48.593Z,26.74
2018-05-27T10:54:48.576Z,26.69
2018-05-27T10:55:48.521Z,26.72
2018-05-27T10:56:48.493Z,26.63
2018-05-27T10:57:48.534Z,26.78
2018-05-27T10:58:48.462Z,26.74
2018-05-27T10:59:48.493Z,26.78
2018-05-27T11:00:48.420Z,26.61
2018-05-27T11:01:48.403Z,26.71
2018-05-27T11:02:48.441Z,26.76
2018-05-27T11:03:48.374Z,26.79
2018-05-27T11:04:48.353Z,26.76
2018-05-27T11:05:48.413Z,26.86
2018-05-27T11:06:48.315Z,26.93
2018-05-27T11:07:48.369Z,26.90
2018-05-27T11:08:48.280Z,26.90
2018-05-27T11:09:48.266Z,27.05
2018-05-27T11:10:48.262Z,27.12
2018-05-27T11:11:48.257Z,27.08
2018-05-27T11:12:48.262Z,26.96
2018-05-27T11:13:48.202Z,26.97
2018-05-27T11:14:48.191Z,26.96
2018-05-27T11:15:48.160Z,26.93
2018-05-27T11:16:48.190Z,26.99
2018-05-27T11:17:48.174Z,26.87
2018-05-27T11:18:48.153Z,26.79
2018-05-27T11:19:48.092Z,26.84
2018-05-27T11:20:48.140Z,26.89
2018-05-27T11:21:48.103Z,26.86
2018-05-27T11:22:48.035Z,26.96
2018-05-27T11:23:48.060Z,26.99
2018-05-27T11:24:48.005Z,27.08
2018-05-27T11:25:47.986Z,27.13
2018-05-27T11:26:47.966Z,27.21
2018-05-27T11:27:47.993Z,27.26
2018-05-27T11:28:47.927Z,27.30
2018-05-27T11:29:47.915Z,27.28
2018-05-27T11:30:47.895Z,27.27
2018-05-27T11:31:47.992Z,27.24
2018-05-27T11:32:47.922Z,27.21
2018-05-27T11:33:47.843Z,27.26
2018-05-27T11:34:49.498Z,27.18
2018-05-27T11:35:47.808Z,27.18
2018-05-27T11:36:47.785Z,27.13
2018-05-27T11:37:47.828Z,27.12
2018-05-27T11:38:47.776Z,27.16
2018-05-27T11:39:47.797Z,27.19
2018-05-27T11:40:47.714Z,27.18
2018-05-27T11:41:47.703Z,27.12
2018-05-27T11:42:47.763Z,27.09
2018-05-27T11:43:47.717Z,27.00
2018-05-27T11:44:47.650Z,26.97
2018-05-27T11:45:47.628Z,26.91
2018-05-27T11:46:47.609Z,26.93
2018-05-27T11:47:47.638Z,27.00
2018-05-27T11:48:47.792Z,27.11
2018-05-27T11:49:47.588Z,27.13
2018-05-27T11:50:47.553Z,27.21
2018-05-27T11:51:47.573Z,27.19
2018-05-27T11:52:47.575Z,27.36
2018-05-27T11:53:48.124Z,27.57
2018-05-27T11:54:47.607Z,27.52
2018-05-27T11:55:47.469Z,27.57
2018-05-27T11:56:47.453Z,27.53
2018-05-27T11:57:47.466Z,27.64
2018-05-27T11:58:47.495Z,27.80
2018-05-27T11:59:47.397Z,27.98
2018-05-27T12:00:47.381Z,28.11
2018-05-27T12:01:47.412Z,28.23
2018-05-27T12:02:47.345Z,28.42
2018-05-27T12:03:47.380Z,28.49
2018-05-27T12:04:47.320Z,28.57
2018-05-27T12:05:47.291Z,28.58
2018-05-27T12:06:47.291Z,28.43
2018-05-27T12:07:47.322Z,28.39
2018-05-27T12:08:47.320Z,28.23
2018-05-27T12:09:47.341Z,28.08
2018-05-27T12:10:47.210Z,28.17
2018-05-27T12:11:47.265Z,28.38
2018-05-27T12:12:47.208Z,28.51
2018-05-27T12:13:47.174Z,28.33
2018-05-27T12:14:47.298Z,28.28
2018-05-27T12:15:47.253Z,28.35
2018-05-27T12:16:47.105Z,28.33
2018-05-27T12:17:47.122Z,28.36
2018-05-27T12:18:47.097Z,28.26
2018-05-27T12:19:47.158Z,28.30
2018-05-27T12:20:47.048Z,28.36
2018-05-27T12:21:47.039Z,28.46
2018-05-27T12:22:47.034Z,28.43
2018-05-27T12:23:47.015Z,28.36
2018-05-27T12:24:47.096Z,28.35
2018-05-27T12:25:46.967Z,28.26
2018-05-27T12:26:46.948Z,28.14
2018-05-27T12:27:46.929Z,28.18
2018-05-27T12:28:46.938Z,28.16
2018-05-27T12:29:46.975Z,28.16
2018-05-27T12:30:46.881Z,28.24
2018-05-27T12:31:46.865Z,28.09
2018-05-27T12:32:46.871Z,28.06
2018-05-27T12:33:46.876Z,28.01
2018-05-27T12:34:46.808Z,28.09
2018-05-27T12:35:46.795Z,27.98
2018-05-27T12:36:46.835Z,27.96
2018-05-27T12:37:46.760Z,27.93
2018-05-27T12:38:46.746Z,27.83
2018-05-27T12:39:46.726Z,27.87
2018-05-27T12:40:46.730Z,27.83
2018-05-27T12:41:46.747Z,27.68
2018-05-27T12:42:46.729Z,27.69
2018-05-27T12:43:46.660Z,27.68
2018-05-27T12:44:46.638Z,27.57
2018-05-27T12:45:46.624Z,27.36
2018-05-27T12:46:46.608Z,27.08
2018-05-27T12:47:46.639Z,26.82
2018-05-27T12:48:46.579Z,26.56
2018-05-27T12:49:46.606Z,26.37
2018-05-27T12:50:46.540Z,26.15
2018-05-27T12:51:46.542Z,25.91